sensor_id;sensor_type;location;lat;lon;timestamp;temperature;humidity
78467;SHT31;67759;51.972;5.650;2023-03-16T00:01:08;6.9;54.0
78467;SHT31;67759;51.972;5.650;2023-03-16T00:03:38;6.9;54.1
78467;SHT31;67759;51.972;5.650;2023-03-16T00:06:08;6.9;54.6
78467;SHT31;67759;51.972;5.650;2023-03-16T00:08:38;6.9;54.6
78467;SHT31;67759;51.972;5.650;2023-03-16T00:11:09;6.9;54.7
78467;SHT31;67759;51.972;5.650;2023-03-16T00:13:40;6.9;55.2
78467;SHT31;67759;51.972;5.650;2023-03-16T00:16:10;6.9;55.0
78467;SHT31;67759;51.972;5.650;2023-03-16T00:18:44;6.9;54.9
78467;SHT31;67759;51.972;5.650;2023-03-16T00:21:16;7.0;55.0
78467;SHT31;67759;51.972;5.650;2023-03-16T00:23:46;7.1;54.8
78467;SHT31;67759;51.972;5.650;2023-03-16T00:26:16;7.2;54.5
78467;SHT31;67759;51.972;5.650;2023-03-16T00:28:48;7.4;54.6
78467;SHT31;67759;51.972;5.650;2023-03-16T00:31:23;7.5;54.1
78467;SHT31;67759;51.972;5.650;2023-03-16T00:33:53;7.5;53.4
78467;SHT31;67759;51.972;5.650;2023-03-16T00:36:23;7.5;53.4
78467;SHT31;67759;51.972;5.650;2023-03-16T00:38:52;7.5;53.5
78467;SHT31;67759;51.972;5.650;2023-03-16T00:41:22;7.5;53.6
78467;SHT31;67759;51.972;5.650;2023-03-16T00:43:52;7.5;53.7
78467;SHT31;67759;51.972;5.650;2023-03-16T00:46:22;7.4;53.8
78467;SHT31;67759;51.972;5.650;2023-03-16T00:48:56;7.4;54.3
78467;SHT31;67759;51.972;5.650;2023-03-16T00:51:26;7.3;54.4
78467;SHT31;67759;51.972;5.650;2023-03-16T00:53:58;7.3;54.6
78467;SHT31;67759;51.972;5.650;2023-03-16T00:56:28;7.2;54.8
78467;SHT31;67759;51.972;5.650;2023-03-16T00:58:58;7.2;55.1
78467;SHT31;67759;51.972;5.650;2023-03-16T01:01:27;7.1;55.3
78467;SHT31;67759;51.972;5.650;2023-03-16T01:03:59;7.1;55.6
78467;SHT31;67759;51.972;5.650;2023-03-16T01:06:29;7.1;56.0
78467;SHT31;67759;51.972;5.650;2023-03-16T01:09:00;7.1;56.1
78467;SHT31;67759;51.972;5.650;2023-03-16T01:11:32;7.1;56.1
78467;SHT31;67759;51.972;5.650;2023-03-16T01:14:02;7.1;56.3
78467;SHT31;67759;51.972;5.650;2023-03-16T01:16:32;7.1;56.5
78467;SHT31;67759;51.972;5.650;2023-03-16T01:19:02;7.1;56.4
78467;SHT31;67759;51.972;5.650;2023-03-16T01:21:32;7.1;56.3
78467;SHT31;67759;51.972;5.650;2023-03-16T01:24:05;7.1;56.5
78467;SHT31;67759;51.972;5.650;2023-03-16T01:26:35;7.1;56.4
78467;SHT31;67759;51.972;5.650;2023-03-16T01:29:05;7.1;56.4
78467;SHT31;67759;51.972;5.650;2023-03-16T01:31:35;7.2;56.3
78467;SHT31;67759;51.972;5.650;2023-03-16T01:34:05;7.2;56.5
78467;SHT31;67759;51.972;5.650;2023-03-16T01:36:35;7.2;56.6
78467;SHT31;67759;51.972;5.650;2023-03-16T01:39:07;7.2;56.7
78467;SHT31;67759;51.972;5.650;2023-03-16T01:41:39;7.2;56.9
78467;SHT31;67759;51.972;5.650;2023-03-16T01:44:12;7.2;56.6
78467;SHT31;67759;51.972;5.650;2023-03-16T01:46:45;7.2;56.8
78467;SHT31;67759;51.972;5.650;2023-03-16T01:49:18;7.2;56.7
78467;SHT31;67759;51.972;5.650;2023-03-16T01:51:53;7.2;57.0
78467;SHT31;67759;51.972;5.650;2023-03-16T01:54:27;7.2;56.7
78467;SHT31;67759;51.972;5.650;2023-03-16T01:57:03;7.2;56.8
78467;SHT31;67759;51.972;5.650;2023-03-16T01:59:37;7.2;56.8
78467;SHT31;67759;51.972;5.650;2023-03-16T02:02:09;7.2;57.2
78467;SHT31;67759;51.972;5.650;2023-03-16T02:04:44;7.2;56.7
78467;SHT31;67759;51.972;5.650;2023-03-16T02:07:18;7.2;56.8
78467;SHT31;67759;51.972;5.650;2023-03-16T02:09:52;7.2;56.7
78467;SHT31;67759;51.972;5.650;2023-03-16T02:12:24;7.2;56.6
78467;SHT31;67759;51.972;5.650;2023-03-16T02:14:55;7.1;56.9
78467;SHT31;67759;51.972;5.650;2023-03-16T02:17:27;7.1;56.6
78467;SHT31;67759;51.972;5.650;2023-03-16T02:20:13;7.1;56.7
78467;SHT31;67759;51.972;5.650;2023-03-16T02:22:51;7.1;57.0
78467;SHT31;67759;51.972;5.650;2023-03-16T02:25:28;7.1;57.0
78467;SHT31;67759;51.972;5.650;2023-03-16T02:28:09;7.0;57.1
78467;SHT31;67759;51.972;5.650;2023-03-16T02:30:43;7.0;57.3
78467;SHT31;67759;51.972;5.650;2023-03-16T02:33:18;7.0;57.5
78467;SHT31;67759;51.972;5.650;2023-03-16T02:35:49;7.0;57.5
78467;SHT31;67759;51.972;5.650;2023-03-16T02:38:18;7.0;57.3
78467;SHT31;67759;51.972;5.650;2023-03-16T02:40:58;7.0;57.7
78467;SHT31;67759;51.972;5.650;2023-03-16T02:43:32;7.1;57.6
78467;SHT31;67759;51.972;5.650;2023-03-16T02:46:08;7.2;57.1
78467;SHT31;67759;51.972;5.650;2023-03-16T02:48:46;7.3;56.5
78467;SHT31;67759;51.972;5.650;2023-03-16T02:51:16;7.3;56.4
78467;SHT31;67759;51.972;5.650;2023-03-16T02:53:46;7.3;56.1
78467;SHT31;67759;51.972;5.650;2023-03-16T02:56:16;7.4;56.3
78467;SHT31;67759;51.972;5.650;2023-03-16T02:58:45;7.3;56.0
78467;SHT31;67759;51.972;5.650;2023-03-16T03:01:15;7.3;56.1
78467;SHT31;67759;51.972;5.650;2023-03-16T03:03:45;7.3;56.2
78467;SHT31;67759;51.972;5.650;2023-03-16T03:06:15;7.3;56.4
78467;SHT31;67759;51.972;5.650;2023-03-16T03:08:45;7.3;56.8
78467;SHT31;67759;51.972;5.650;2023-03-16T03:11:14;7.3;56.6
78467;SHT31;67759;51.972;5.650;2023-03-16T03:13:46;7.3;56.8
78467;SHT31;67759;51.972;5.650;2023-03-16T03:16:16;7.4;57.4
78467;SHT31;67759;51.972;5.650;2023-03-16T03:18:46;7.4;56.4
78467;SHT31;67759;51.972;5.650;2023-03-16T03:21:15;7.3;57.0
78467;SHT31;67759;51.972;5.650;2023-03-16T03:23:45;7.3;57.5
78467;SHT31;67759;51.972;5.650;2023-03-16T03:26:16;7.4;57.3
78467;SHT31;67759;51.972;5.650;2023-03-16T03:28:46;7.4;57.0
78467;SHT31;67759;51.972;5.650;2023-03-16T03:31:21;7.5;56.6
78467;SHT31;67759;51.972;5.650;2023-03-16T03:33:51;7.4;57.0
78467;SHT31;67759;51.972;5.650;2023-03-16T03:36:21;7.4;57.3
78467;SHT31;67759;51.972;5.650;2023-03-16T03:38:51;7.4;57.8
78467;SHT31;67759;51.972;5.650;2023-03-16T03:41:22;7.3;58.0
78467;SHT31;67759;51.972;5.650;2023-03-16T03:43:55;7.3;58.3
78467;SHT31;67759;51.972;5.650;2023-03-16T03:46:25;7.3;58.4
78467;SHT31;67759;51.972;5.650;2023-03-16T03:48:55;7.2;58.8
78467;SHT31;67759;51.972;5.650;2023-03-16T03:51:30;7.2;59.4
78467;SHT31;67759;51.972;5.650;2023-03-16T03:54:00;7.2;59.6
78467;SHT31;67759;51.972;5.650;2023-03-16T03:56:30;7.1;59.9
78467;SHT31;67759;51.972;5.650;2023-03-16T03:58:59;7.1;59.9
78467;SHT31;67759;51.972;5.650;2023-03-16T04:01:29;7.0;60.5
78467;SHT31;67759;51.972;5.650;2023-03-16T04:03:59;7.0;60.7
78467;SHT31;67759;51.972;5.650;2023-03-16T04:06:29;6.9;60.9
78467;SHT31;67759;51.972;5.650;2023-03-16T04:08:58;6.9;61.5
78467;SHT31;67759;51.972;5.650;2023-03-16T04:11:28;6.8;60.8
78467;SHT31;67759;51.972;5.650;2023-03-16T04:13:58;6.8;61.2
78467;SHT31;67759;51.972;5.650;2023-03-16T04:16:27;6.8;61.7
78467;SHT31;67759;51.972;5.650;2023-03-16T04:18:58;6.7;61.6
78467;SHT31;67759;51.972;5.650;2023-03-16T04:21:28;6.7;62.0
78467;SHT31;67759;51.972;5.650;2023-03-16T04:23:58;6.7;62.2
78467;SHT31;67759;51.972;5.650;2023-03-16T04:26:31;6.6;62.4
78467;SHT31;67759;51.972;5.650;2023-03-16T04:29:03;6.6;62.7
78467;SHT31;67759;51.972;5.650;2023-03-16T04:31:32;6.6;62.4
78467;SHT31;67759;51.972;5.650;2023-03-16T04:34:02;6.6;62.4
78467;SHT31;67759;51.972;5.650;2023-03-16T04:36:32;6.6;62.7
78467;SHT31;67759;51.972;5.650;2023-03-16T04:39:03;6.5;62.9
78467;SHT31;67759;51.972;5.650;2023-03-16T04:41:32;6.5;62.5
78467;SHT31;67759;51.972;5.650;2023-03-16T04:44:02;6.5;62.4
78467;SHT31;67759;51.972;5.650;2023-03-16T04:46:32;6.5;62.4
78467;SHT31;67759;51.972;5.650;2023-03-16T04:49:02;6.4;62.5
78467;SHT31;67759;51.972;5.650;2023-03-16T04:51:36;6.4;62.7
78467;SHT31;67759;51.972;5.650;2023-03-16T04:54:09;6.4;63.1
78467;SHT31;67759;51.972;5.650;2023-03-16T04:56:39;6.4;63.0
78467;SHT31;67759;51.972;5.650;2023-03-16T04:59:12;6.4;63.5
78467;SHT31;67759;51.972;5.650;2023-03-16T05:01:42;6.5;63.3
78467;SHT31;67759;51.972;5.650;2023-03-16T05:04:12;6.7;62.7
78467;SHT31;67759;51.972;5.650;2023-03-16T05:06:41;6.8;61.7
78467;SHT31;67759;51.972;5.650;2023-03-16T05:09:11;6.8;61.3
78467;SHT31;67759;51.972;5.650;2023-03-16T05:11:41;6.9;60.9
78467;SHT31;67759;51.972;5.650;2023-03-16T05:14:10;6.9;60.6
78467;SHT31;67759;51.972;5.650;2023-03-16T05:16:40;6.9;60.3
78467;SHT31;67759;51.972;5.650;2023-03-16T05:19:11;6.9;60.2
78467;SHT31;67759;51.972;5.650;2023-03-16T05:21:42;6.9;60.3
78467;SHT31;67759;51.972;5.650;2023-03-16T05:24:15;7.0;60.5
78467;SHT31;67759;51.972;5.650;2023-03-16T05:26:45;7.0;60.4
78467;SHT31;67759;51.972;5.650;2023-03-16T05:29:15;7.1;59.9
78467;SHT31;67759;51.972;5.650;2023-03-16T05:31:45;7.2;59.3
78467;SHT31;67759;51.972;5.650;2023-03-16T05:34:16;7.2;59.1
78467;SHT31;67759;51.972;5.650;2023-03-16T05:36:47;7.2;59.0
78467;SHT31;67759;51.972;5.650;2023-03-16T05:39:17;7.2;59.1
78467;SHT31;67759;51.972;5.650;2023-03-16T05:41:49;7.2;59.2
78467;SHT31;67759;51.972;5.650;2023-03-16T05:44:20;7.2;59.3
78467;SHT31;67759;51.972;5.650;2023-03-16T05:46:51;7.2;59.5
78467;SHT31;67759;51.972;5.650;2023-03-16T05:49:21;7.1;59.6
78467;SHT31;67759;51.972;5.650;2023-03-16T05:51:52;7.1;59.9
78467;SHT31;67759;51.972;5.650;2023-03-16T05:54:22;7.1;60.7
78467;SHT31;67759;51.972;5.650;2023-03-16T05:56:52;7.1;60.7
78467;SHT31;67759;51.972;5.650;2023-03-16T05:59:22;7.2;61.3
78467;SHT31;67759;51.972;5.650;2023-03-16T06:01:53;7.2;60.8
78467;SHT31;67759;51.972;5.650;2023-03-16T06:04:24;7.3;60.6
78467;SHT31;67759;51.972;5.650;2023-03-16T06:06:53;7.3;60.2
78467;SHT31;67759;51.972;5.650;2023-03-16T06:09:23;7.2;60.8
78467;SHT31;67759;51.972;5.650;2023-03-16T06:11:53;7.2;60.9
78467;SHT31;67759;51.972;5.650;2023-03-16T06:14:23;7.1;60.8
78467;SHT31;67759;51.972;5.650;2023-03-16T06:16:53;7.1;61.1
78467;SHT31;67759;51.972;5.650;2023-03-16T06:19:22;7.0;62.0
78467;SHT31;67759;51.972;5.650;2023-03-16T06:21:52;7.0;62.0
78467;SHT31;67759;51.972;5.650;2023-03-16T06:24:22;7.0;62.2
78467;SHT31;67759;51.972;5.650;2023-03-16T06:26:52;7.0;61.9
78467;SHT31;67759;51.972;5.650;2023-03-16T06:29:21;6.9;61.9
78467;SHT31;67759;51.972;5.650;2023-03-16T06:31:51;6.9;62.2
78467;SHT31;67759;51.972;5.650;2023-03-16T06:34:21;6.9;61.8
78467;SHT31;67759;51.972;5.650;2023-03-16T06:36:51;6.9;62.2
78467;SHT31;67759;51.972;5.650;2023-03-16T06:39:24;6.9;62.7
78467;SHT31;67759;51.972;5.650;2023-03-16T06:41:54;6.9;62.6
78467;SHT31;67759;51.972;5.650;2023-03-16T06:44:24;6.9;62.8
78467;SHT31;67759;51.972;5.650;2023-03-16T06:46:56;6.9;63.2
78467;SHT31;67759;51.972;5.650;2023-03-16T06:49:26;6.8;63.3
78467;SHT31;67759;51.972;5.650;2023-03-16T06:51:55;6.8;63.8
78467;SHT31;67759;51.972;5.650;2023-03-16T06:54:27;6.8;63.8
78467;SHT31;67759;51.972;5.650;2023-03-16T06:57:00;6.8;64.3
78467;SHT31;67759;51.972;5.650;2023-03-16T06:59:30;6.8;64.4
78467;SHT31;67759;51.972;5.650;2023-03-16T07:02:00;6.8;64.5
78467;SHT31;67759;51.972;5.650;2023-03-16T07:04:30;6.9;64.2
78467;SHT31;67759;51.972;5.650;2023-03-16T07:07:00;6.9;64.0
78467;SHT31;67759;51.972;5.650;2023-03-16T07:09:30;6.9;64.3
78467;SHT31;67759;51.972;5.650;2023-03-16T07:11:59;6.9;64.1
78467;SHT31;67759;51.972;5.650;2023-03-16T07:14:29;6.9;63.8
78467;SHT31;67759;51.972;5.650;2023-03-16T07:16:59;6.9;64.4
78467;SHT31;67759;51.972;5.650;2023-03-16T07:19:29;6.9;65.1
78467;SHT31;67759;51.972;5.650;2023-03-16T07:22:00;7.0;64.5
78467;SHT31;67759;51.972;5.650;2023-03-16T07:24:31;7.1;64.8
78467;SHT31;67759;51.972;5.650;2023-03-16T07:27:01;7.3;63.5
78467;SHT31;67759;51.972;5.650;2023-03-16T07:29:30;7.3;63.5
78467;SHT31;67759;51.972;5.650;2023-03-16T07:32:00;7.3;64.4
78467;SHT31;67759;51.972;5.650;2023-03-16T07:34:31;7.3;63.5
78467;SHT31;67759;51.972;5.650;2023-03-16T07:37:01;7.3;63.5
78467;SHT31;67759;51.972;5.650;2023-03-16T07:39:31;7.3;64.0
78467;SHT31;67759;51.972;5.650;2023-03-16T07:42:01;7.2;64.7
78467;SHT31;67759;51.972;5.650;2023-03-16T07:44:31;7.2;64.3
78467;SHT31;67759;51.972;5.650;2023-03-16T07:47:02;7.2;65.4
78467;SHT31;67759;51.972;5.650;2023-03-16T07:49:33;7.2;64.9
78467;SHT31;67759;51.972;5.650;2023-03-16T07:52:03;7.2;65.2
78467;SHT31;67759;51.972;5.650;2023-03-16T07:54:33;7.2;65.6
78467;SHT31;67759;51.972;5.650;2023-03-16T07:57:02;7.2;65.2
78467;SHT31;67759;51.972;5.650;2023-03-16T07:59:32;7.2;65.3
78467;SHT31;67759;51.972;5.650;2023-03-16T08:02:02;7.2;65.8
78467;SHT31;67759;51.972;5.650;2023-03-16T08:04:32;7.2;65.7
78467;SHT31;67759;51.972;5.650;2023-03-16T08:07:01;7.2;66.3
78467;SHT31;67759;51.972;5.650;2023-03-16T08:09:32;7.2;66.1
78467;SHT31;67759;51.972;5.650;2023-03-16T08:12:03;7.2;66.2
78467;SHT31;67759;51.972;5.650;2023-03-16T08:14:34;7.2;66.3
78467;SHT31;67759;51.972;5.650;2023-03-16T08:17:05;7.2;65.7
78467;SHT31;67759;51.972;5.650;2023-03-16T08:19:37;7.2;65.6
78467;SHT31;67759;51.972;5.650;2023-03-16T08:22:07;7.2;66.3
78467;SHT31;67759;51.972;5.650;2023-03-16T08:24:37;7.2;66.3
78467;SHT31;67759;51.972;5.650;2023-03-16T08:27:07;7.2;67.8
78467;SHT31;67759;51.972;5.650;2023-03-16T08:29:37;7.3;66.8
78467;SHT31;67759;51.972;5.650;2023-03-16T08:32:08;7.3;66.4
78467;SHT31;67759;51.972;5.650;2023-03-16T08:34:38;7.4;66.0
78467;SHT31;67759;51.972;5.650;2023-03-16T08:37:08;7.4;66.4
78467;SHT31;67759;51.972;5.650;2023-03-16T08:39:41;7.5;65.5
78467;SHT31;67759;51.972;5.650;2023-03-16T08:42:12;7.5;65.2
78467;SHT31;67759;51.972;5.650;2023-03-16T08:44:43;7.6;65.6
78467;SHT31;67759;51.972;5.650;2023-03-16T08:47:14;7.7;65.0
78467;SHT31;67759;51.972;5.650;2023-03-16T08:49:44;7.8;64.8
78467;SHT31;67759;51.972;5.650;2023-03-16T08:52:14;7.9;64.2
78467;SHT31;67759;51.972;5.650;2023-03-16T08:54:44;7.9;63.5
78467;SHT31;67759;51.972;5.650;2023-03-16T08:57:15;8.0;63.6
78467;SHT31;67759;51.972;5.650;2023-03-16T08:59:45;8.1;62.9
78467;SHT31;67759;51.972;5.650;2023-03-16T09:02:15;8.2;62.5
78467;SHT31;67759;51.972;5.650;2023-03-16T09:04:45;8.2;62.8
78467;SHT31;67759;51.972;5.650;2023-03-16T09:07:16;8.2;62.4
78467;SHT31;67759;51.972;5.650;2023-03-16T09:09:46;8.3;63.0
78467;SHT31;67759;51.972;5.650;2023-03-16T09:12:17;8.3;62.8
78467;SHT31;67759;51.972;5.650;2023-03-16T09:14:47;8.4;62.5
78467;SHT31;67759;51.972;5.650;2023-03-16T09:17:17;8.4;62.1
78467;SHT31;67759;51.972;5.650;2023-03-16T09:19:52;8.5;62.5
78467;SHT31;67759;51.972;5.650;2023-03-16T09:22:22;8.6;62.0
78467;SHT31;67759;51.972;5.650;2023-03-16T09:24:53;8.6;61.8
78467;SHT31;67759;51.972;5.650;2023-03-16T09:27:24;8.7;61.0
78467;SHT31;67759;51.972;5.650;2023-03-16T09:29:55;8.7;60.6
78467;SHT31;67759;51.972;5.650;2023-03-16T09:32:26;8.8;60.4
78467;SHT31;67759;51.972;5.650;2023-03-16T09:34:56;8.9;59.7
78467;SHT31;67759;51.972;5.650;2023-03-16T09:37:26;8.9;59.8
78467;SHT31;67759;51.972;5.650;2023-03-16T09:39:56;8.9;59.7
78467;SHT31;67759;51.972;5.650;2023-03-16T09:42:32;8.9;59.7
78467;SHT31;67759;51.972;5.650;2023-03-16T09:45:14;9.0;60.0
78467;SHT31;67759;51.972;5.650;2023-03-16T09:47:51;9.2;59.5
78467;SHT31;67759;51.972;5.650;2023-03-16T09:50:28;9.4;57.9
78467;SHT31;67759;51.972;5.650;2023-03-16T09:53:07;9.4;57.9
78467;SHT31;67759;51.972;5.650;2023-03-16T09:55:47;9.5;57.5
78467;SHT31;67759;51.972;5.650;2023-03-16T09:58:19;9.5;57.1
78467;SHT31;67759;51.972;5.650;2023-03-16T10:00:54;9.5;57.5
78467;SHT31;67759;51.972;5.650;2023-03-16T10:03:46;9.5;58.1
78467;SHT31;67759;51.972;5.650;2023-03-16T10:06:24;9.5;57.2
78467;SHT31;67759;51.972;5.650;2023-03-16T10:09:04;9.5;58.2
78467;SHT31;67759;51.972;5.650;2023-03-16T10:11:40;9.6;56.9
78467;SHT31;67759;51.972;5.650;2023-03-16T10:14:21;9.6;57.4
78467;SHT31;67759;51.972;5.650;2023-03-16T10:16:57;9.7;58.2
78467;SHT31;67759;51.972;5.650;2023-03-16T10:19:35;9.8;57.2
78467;SHT31;67759;51.972;5.650;2023-03-16T10:22:15;9.9;56.4
78467;SHT31;67759;51.972;5.650;2023-03-16T10:25:03;9.9;55.9
78467;SHT31;67759;51.972;5.650;2023-03-16T10:27:39;10.0;55.8
78467;SHT31;67759;51.972;5.650;2023-03-16T10:30:20;10.1;55.6
78467;SHT31;67759;51.972;5.650;2023-03-16T10:32:51;10.2;54.8
78467;SHT31;67759;51.972;5.650;2023-03-16T10:35:33;10.3;54.7
78467;SHT31;67759;51.972;5.650;2023-03-16T10:38:06;10.4;55.3
78467;SHT31;67759;51.972;5.650;2023-03-16T10:40:38;10.5;55.4
78467;SHT31;67759;51.972;5.650;2023-03-16T10:43:12;10.6;54.7
78467;SHT31;67759;51.972;5.650;2023-03-16T10:45:43;10.7;54.3
78467;SHT31;67759;51.972;5.650;2023-03-16T10:48:15;10.8;53.6
78467;SHT31;67759;51.972;5.650;2023-03-16T10:50:49;10.9;52.8
78467;SHT31;67759;51.972;5.650;2023-03-16T10:53:22;11.0;53.5
78467;SHT31;67759;51.972;5.650;2023-03-16T10:55:59;11.1;52.4
78467;SHT31;67759;51.972;5.650;2023-03-16T10:58:33;11.1;51.3
78467;SHT31;67759;51.972;5.650;2023-03-16T11:01:11;11.2;52.2
78467;SHT31;67759;51.972;5.650;2023-03-16T11:03:41;11.3;52.0
78467;SHT31;67759;51.972;5.650;2023-03-16T11:06:19;11.3;51.2
78467;SHT31;67759;51.972;5.650;2023-03-16T11:08:51;11.4;51.1
78467;SHT31;67759;51.972;5.650;2023-03-16T11:11:28;11.5;50.7
78467;SHT31;67759;51.972;5.650;2023-03-16T11:14:02;11.5;51.4
78467;SHT31;67759;51.972;5.650;2023-03-16T11:16:37;11.6;50.9
78467;SHT31;67759;51.972;5.650;2023-03-16T11:19:19;11.7;50.2
78467;SHT31;67759;51.972;5.650;2023-03-16T11:21:57;11.8;49.9
78467;SHT31;67759;51.972;5.650;2023-03-16T11:24:33;11.8;50.1
78467;SHT31;67759;51.972;5.650;2023-03-16T11:27:19;11.9;49.0
78467;SHT31;67759;51.972;5.650;2023-03-16T11:30:00;11.9;48.7
78467;SHT31;67759;51.972;5.650;2023-03-16T11:32:36;12.0;49.0
78467;SHT31;67759;51.972;5.650;2023-03-16T11:35:18;12.0;49.0
78467;SHT31;67759;51.972;5.650;2023-03-16T11:38:09;12.2;48.7
78467;SHT31;67759;51.972;5.650;2023-03-16T11:40:51;12.3;47.6
78467;SHT31;67759;51.972;5.650;2023-03-16T11:43:40;12.4;47.4
78467;SHT31;67759;51.972;5.650;2023-03-16T11:46:16;12.4;47.0
78467;SHT31;67759;51.972;5.650;2023-03-16T11:48:52;12.4;47.3
78467;SHT31;67759;51.972;5.650;2023-03-16T11:51:44;12.4;47.6
78467;SHT31;67759;51.972;5.650;2023-03-16T11:54:34;12.5;47.9
78467;SHT31;67759;51.972;5.650;2023-03-16T11:57:18;12.5;47.0
78467;SHT31;67759;51.972;5.650;2023-03-16T12:00:02;12.5;47.1
78467;SHT31;67759;51.972;5.650;2023-03-16T12:02:53;12.6;47.1
78467;SHT31;67759;51.972;5.650;2023-03-16T12:05:38;12.7;46.9
78467;SHT31;67759;51.972;5.650;2023-03-16T12:08:28;12.8;46.6
78467;SHT31;67759;51.972;5.650;2023-03-16T12:11:08;12.9;46.9
78467;SHT31;67759;51.972;5.650;2023-03-16T12:13:58;13.0;46.8
78467;SHT31;67759;51.972;5.650;2023-03-16T12:16:33;13.0;46.7
78467;SHT31;67759;51.972;5.650;2023-03-16T12:19:08;13.1;45.8
78467;SHT31;67759;51.972;5.650;2023-03-16T12:21:46;13.1;46.1
78467;SHT31;67759;51.972;5.650;2023-03-16T12:24:20;13.1;46.6
78467;SHT31;67759;51.972;5.650;2023-03-16T12:26:53;13.1;46.0
78467;SHT31;67759;51.972;5.650;2023-03-16T12:29:33;13.1;45.7
78467;SHT31;67759;51.972;5.650;2023-03-16T12:32:15;13.2;46.2
78467;SHT31;67759;51.972;5.650;2023-03-16T12:34:51;13.2;46.8
78467;SHT31;67759;51.972;5.650;2023-03-16T12:37:33;13.3;45.8
78467;SHT31;67759;51.972;5.650;2023-03-16T12:40:23;13.3;46.9
78467;SHT31;67759;51.972;5.650;2023-03-16T12:43:02;13.4;46.7
78467;SHT31;67759;51.972;5.650;2023-03-16T12:45:44;13.5;47.1
78467;SHT31;67759;51.972;5.650;2023-03-16T12:48:25;13.6;46.7
78467;SHT31;67759;51.972;5.650;2023-03-16T12:50:59;13.8;46.1
78467;SHT31;67759;51.972;5.650;2023-03-16T12:53:42;13.9;45.1
78467;SHT31;67759;51.972;5.650;2023-03-16T12:56:16;14.0;44.3
78467;SHT31;67759;51.972;5.650;2023-03-16T12:58:48;14.1;45.2
78467;SHT31;67759;51.972;5.650;2023-03-16T13:01:26;14.2;44.7
78467;SHT31;67759;51.972;5.650;2023-03-16T13:04:05;14.3;44.5
78467;SHT31;67759;51.972;5.650;2023-03-16T13:06:35;14.4;44.0
78467;SHT31;67759;51.972;5.650;2023-03-16T13:09:05;14.4;43.1
78467;SHT31;67759;51.972;5.650;2023-03-16T13:11:44;14.5;43.2
78467;SHT31;67759;51.972;5.650;2023-03-16T13:14:34;14.5;42.7
78467;SHT31;67759;51.972;5.650;2023-03-16T13:17:31;14.6;42.0
78467;SHT31;67759;51.972;5.650;2023-03-16T13:20:51;14.6;42.4
78467;SHT31;67759;51.972;5.650;2023-03-16T13:23:24;14.6;42.2
78467;SHT31;67759;51.972;5.650;2023-03-16T13:26:04;14.6;42.7
78467;SHT31;67759;51.972;5.650;2023-03-16T13:28:37;14.7;41.3
78467;SHT31;67759;51.972;5.650;2023-03-16T13:31:20;14.7;40.6
78467;SHT31;67759;51.972;5.650;2023-03-16T13:33:52;14.8;40.8
78467;SHT31;67759;51.972;5.650;2023-03-16T13:36:24;14.9;41.5
78467;SHT31;67759;51.972;5.650;2023-03-16T13:39:04;15.0;40.9
78467;SHT31;67759;51.972;5.650;2023-03-16T13:41:37;15.1;40.5
78467;SHT31;67759;51.972;5.650;2023-03-16T13:44:13;15.2;40.3
78467;SHT31;67759;51.972;5.650;2023-03-16T13:46:47;15.3;40.4
78467;SHT31;67759;51.972;5.650;2023-03-16T13:49:17;15.3;40.0
78467;SHT31;67759;51.972;5.650;2023-03-16T13:51:48;15.3;39.2
78467;SHT31;67759;51.972;5.650;2023-03-16T13:54:24;15.4;39.1
78467;SHT31;67759;51.972;5.650;2023-03-16T13:56:58;15.4;39.2
78467;SHT31;67759;51.972;5.650;2023-03-16T13:59:29;15.5;41.5
78467;SHT31;67759;51.972;5.650;2023-03-16T14:02:00;15.5;39.1
78467;SHT31;67759;51.972;5.650;2023-03-16T14:04:32;15.6;38.4
78467;SHT31;67759;51.972;5.650;2023-03-16T14:07:03;15.7;38.6
78467;SHT31;67759;51.972;5.650;2023-03-16T14:09:34;15.8;38.2
78467;SHT31;67759;51.972;5.650;2023-03-16T14:12:16;15.9;37.7
78467;SHT31;67759;51.972;5.650;2023-03-16T14:14:49;16.0;38.0
78467;SHT31;67759;51.972;5.650;2023-03-16T14:17:24;16.1;37.6
78467;SHT31;67759;51.972;5.650;2023-03-16T14:19:59;16.1;37.4
78467;SHT31;67759;51.972;5.650;2023-03-16T14:22:34;16.2;36.2
78467;SHT31;67759;51.972;5.650;2023-03-16T14:25:06;16.2;36.2
78467;SHT31;67759;51.972;5.650;2023-03-16T14:27:44;16.2;37.2
78467;SHT31;67759;51.972;5.650;2023-03-16T14:30:19;16.2;37.0
78467;SHT31;67759;51.972;5.650;2023-03-16T14:32:57;16.2;36.5
78467;SHT31;67759;51.972;5.650;2023-03-16T14:35:29;16.2;37.5
78467;SHT31;67759;51.972;5.650;2023-03-16T14:38:19;16.1;36.8
78467;SHT31;67759;51.972;5.650;2023-03-16T14:40:55;16.2;37.2
78467;SHT31;67759;51.972;5.650;2023-03-16T14:43:29;16.1;37.7
78467;SHT31;67759;51.972;5.650;2023-03-16T14:46:03;16.1;37.0
78467;SHT31;67759;51.972;5.650;2023-03-16T14:48:34;16.1;37.3
78467;SHT31;67759;51.972;5.650;2023-03-16T14:51:12;16.1;37.4
78467;SHT31;67759;51.972;5.650;2023-03-16T14:53:42;16.1;36.7
78467;SHT31;67759;51.972;5.650;2023-03-16T14:56:13;16.1;36.7
78467;SHT31;67759;51.972;5.650;2023-03-16T14:58:43;16.2;36.0
78467;SHT31;67759;51.972;5.650;2023-03-16T15:01:16;16.2;36.6
78467;SHT31;67759;51.972;5.650;2023-03-16T15:03:46;16.2;36.5
78467;SHT31;67759;51.972;5.650;2023-03-16T15:06:16;16.2;36.4
78467;SHT31;67759;51.972;5.650;2023-03-16T15:08:47;16.2;36.0
78467;SHT31;67759;51.972;5.650;2023-03-16T15:11:17;16.2;35.3
78467;SHT31;67759;51.972;5.650;2023-03-16T15:13:48;16.2;35.6
78467;SHT31;67759;51.972;5.650;2023-03-16T15:16:29;16.2;35.7
78467;SHT31;67759;51.972;5.650;2023-03-16T15:19:00;16.1;35.8
78467;SHT31;67759;51.972;5.650;2023-03-16T15:21:30;16.1;36.3
78467;SHT31;67759;51.972;5.650;2023-03-16T15:23:59;16.0;36.7
78467;SHT31;67759;51.972;5.650;2023-03-16T15:26:29;16.0;35.8
78467;SHT31;67759;51.972;5.650;2023-03-16T15:28:59;16.0;36.3
78467;SHT31;67759;51.972;5.650;2023-03-16T15:31:28;16.0;37.9
78467;SHT31;67759;51.972;5.650;2023-03-16T15:33:58;16.0;35.7
78467;SHT31;67759;51.972;5.650;2023-03-16T15:36:28;16.0;37.2
78467;SHT31;67759;51.972;5.650;2023-03-16T15:38:58;16.2;37.0
78467;SHT31;67759;51.972;5.650;2023-03-16T15:41:28;16.3;36.1
78467;SHT31;67759;51.972;5.650;2023-03-16T15:43:58;16.6;37.0
78467;SHT31;67759;51.972;5.650;2023-03-16T15:46:30;16.7;35.0
78467;SHT31;67759;51.972;5.650;2023-03-16T15:49:01;16.8;34.9
78467;SHT31;67759;51.972;5.650;2023-03-16T15:51:31;16.8;35.3
78467;SHT31;67759;51.972;5.650;2023-03-16T15:54:03;16.9;34.7
78467;SHT31;67759;51.972;5.650;2023-03-16T15:56:37;16.9;34.9
78467;SHT31;67759;51.972;5.650;2023-03-16T15:59:12;16.9;34.0
78467;SHT31;67759;51.972;5.650;2023-03-16T16:01:45;17.0;34.2
78467;SHT31;67759;51.972;5.650;2023-03-16T16:04:17;17.0;35.1
78467;SHT31;67759;51.972;5.650;2023-03-16T16:06:49;17.0;34.6
78467;SHT31;67759;51.972;5.650;2023-03-16T16:09:21;17.0;33.8
78467;SHT31;67759;51.972;5.650;2023-03-16T16:11:52;17.0;34.2
78467;SHT31;67759;51.972;5.650;2023-03-16T16:14:23;17.0;33.9
78467;SHT31;67759;51.972;5.650;2023-03-16T16:16:56;17.0;34.7
78467;SHT31;67759;51.972;5.650;2023-03-16T16:19:28;17.0;33.7
78467;SHT31;67759;51.972;5.650;2023-03-16T16:22:02;16.9;34.0
78467;SHT31;67759;51.972;5.650;2023-03-16T16:24:32;16.9;34.7
78467;SHT31;67759;51.972;5.650;2023-03-16T16:27:07;17.0;34.6
78467;SHT31;67759;51.972;5.650;2023-03-16T16:29:39;17.0;35.2
78467;SHT31;67759;51.972;5.650;2023-03-16T16:32:21;17.0;34.4
78467;SHT31;67759;51.972;5.650;2023-03-16T16:34:52;17.1;34.8
78467;SHT31;67759;51.972;5.650;2023-03-16T16:37:22;17.1;37.4
78467;SHT31;67759;51.972;5.650;2023-03-16T16:39:52;17.1;36.2
78467;SHT31;67759;51.972;5.650;2023-03-16T16:42:21;17.1;35.0
78467;SHT31;67759;51.972;5.650;2023-03-16T16:44:55;17.1;34.7
78467;SHT31;67759;51.972;5.650;2023-03-16T16:47:25;17.1;35.3
78467;SHT31;67759;51.972;5.650;2023-03-16T16:49:54;17.1;34.9